Time;durP1;ratioP1;P1;durP2;ratioP2;P2;SDS_P1;SDS_P2;PMS_P1;PMS_P2;Temp;Humidity;BMP_temperature;BMP_pressure;BME280_temperature;BME280_humidity;BME280_pressure;Samples;Min_cycle;Max_cycle;Signal;HPM_P1;HPM_P2
2020/12/08 00:01:50;;;;;;;92.18;20.38;;;;;;;0.78;79.42;94879.22;5113101;27;20043;-73
2020/12/08 00:04:16;;;;;;;81.68;19.23;;;;;;;0.72;79.44;94879.59;5112764;28;20406;-73
2020/12/08 00:06:43;;;;;;;74.43;18.77;;;;;;;0.72;79.41;94882.25;5112702;28;20495;-73
2020/12/08 00:09:09;;;;;;;68.38;18.15;;;;;;;0.72;79.31;94876.91;5112542;28;20048;-74
2020/12/08 00:11:35;;;;;;;59.33;17.00;;;;;;;0.72;79.15;94876.91;5113032;28;20047;-73
2020/12/08 00:14:01;;;;;;;42.10;17.80;;;;;;;0.71;79.03;94875.31;5112288;28;20044;-73
2020/12/08 00:16:27;;;;;;;53.95;17.73;;;;;;;0.67;78.87;94872.41;5112578;28;20039;-74
2020/12/08 00:18:53;;;;;;;63.00;18.23;;;;;;;0.61;79.01;94878.94;5112516;28;20070;-73
2020/12/08 00:21:19;;;;;;;65.82;17.27;;;;;;;0.61;79.18;94878.94;5112247;28;20593;-74
2020/12/08 00:23:45;;;;;;;66.95;18.73;;;;;;;0.65;78.97;94871.91;5113023;27;20449;-74
2020/12/08 00:26:14;;;;;;;58.65;17.73;;;;;;;0.63;79.55;94882.16;5112185;27;20043;-73
2020/12/08 00:28:41;;;;;;;54.75;16.63;;;;;;;0.62;79.40;94880.53;5112542;27;20050;-73
2020/12/08 00:31:08;;;;;;;45.80;19.17;;;;;;;0.61;79.76;94884.28;5111940;28;20092;-73
2020/12/08 00:33:34;;;;;;;64.60;19.48;;;;;;;0.63;79.50;94882.16;5112295;28;20039;-73
2020/12/08 00:36:02;;;;;;;49.28;16.63;;;;;;;0.65;79.39;94874.59;5112419;27;20044;-73
2020/12/08 00:38:28;;;;;;;51.83;16.48;;;;;;;0.71;79.33;94878.78;5111984;28;20043;-73
2020/12/08 00:40:54;;;;;;;51.38;16.13;;;;;;;0.73;79.19;94882.00;5112303;28;20085;-73
2020/12/08 00:43:21;;;;;;;42.53;17.50;;;;;;;0.74;79.13;94883.56;5111707;28;20513;-73
2020/12/08 00:45:47;;;;;;;42.15;16.27;;;;;;;0.72;79.05;94880.38;5111950;28;20071;-73
2020/12/08 00:48:13;;;;;;;46.47;17.30;;;;;;;0.76;78.88;94885.97;5111577;27;20051;-74
2020/12/08 00:50:39;;;;;;;46.47;17.00;;;;;;;0.77;78.80;94888.34;5111967;27;20673;-73
2020/12/08 00:53:05;;;;;;;42.90;16.55;;;;;;;0.80;78.51;94896.91;5111775;28;20070;-73
2020/12/08 00:55:31;;;;;;;36.20;15.60;;;;;;;0.80;78.39;94900.38;5112039;28;20590;-74
2020/12/08 00:57:57;;;;;;;36.35;16.98;;;;;;;0.76;78.30;94894.78;5112181;28;20116;-73
2020/12/08 01:00:24;;;;;;;47.85;16.73;;;;;;;0.72;78.40;94896.44;5111584;27;20116;-73
2020/12/08 01:02:50;;;;;;;84.68;17.83;;;;;;;0.72;78.50;94891.09;5111857;28;20537;-73
2020/12/08 01:05:17;;;;;;;134.30;20.27;;;;;;;0.50;78.55;94890.91;5111483;27;20044;-73
2020/12/08 01:07:43;;;;;;;146.30;20.13;;;;;;;0.03;80.31;94884.56;5111881;28;20039;-73
2020/12/08 01:10:09;;;;;;;66.15;18.48;;;;;;;0.13;80.46;94889.78;5111359;27;20050;-73
2020/12/08 01:12:37;;;;;;;67.15;20.65;;;;;;;0.10;80.25;94890.34;5111965;28;20114;-73
2020/12/08 01:15:03;;;;;;;76.28;18.35;;;;;;;0.11;80.96;94880.47;5110965;28;20051;-73
2020/12/08 01:17:32;;;;;;;67.22;18.77;;;;;;;0.17;81.10;94884.66;5111808;27;20044;-73
2020/12/08 01:19:58;;;;;;;74.80;17.73;;;;;;;0.19;80.94;94888.63;5111604;28;20063;-73
2020/12/08 01:22:24;;;;;;;42.92;16.52;;;;;;;0.23;80.96;94895.00;5111175;27;20121;-73
2020/12/08 01:24:50;;;;;;;38.83;16.10;;;;;;;0.22;80.90;94888.06;5110987;28;20039;-73
2020/12/08 01:27:16;;;;;;;41.88;16.15;;;;;;;0.23;80.86;94889.66;5110889;28;20075;-74
2020/12/08 01:29:42;;;;;;;52.10;17.58;;;;;;;0.22;80.92;94882.72;5111276;27;20555;-73
2020/12/08 01:32:08;;;;;;;66.85;16.75;;;;;;;0.09;80.41;94878.06;5110917;28;20449;-74
2020/12/08 01:34:37;;;;;;;37.95;16.35;;;;;;;0.09;80.45;94882.63;5111195;28;20449;-73
2020/12/08 01:37:03;;;;;;;42.38;16.05;;;;;;;0.12;80.61;94880.16;5110660;28;20040;-73
2020/12/08 01:39:29;;;;;;;41.10;15.35;;;;;;;0.15;80.67;94887.59;5111105;28;20530;-73
2020/12/08 01:41:56;;;;;;;49.17;15.13;;;;;;;0.18;80.63;94886.25;5111094;28;20040;-74
2020/12/08 01:44:22;;;;;;;70.65;17.42;;;;;;;0.13;80.40;94884.44;5110612;28;20567;-73
2020/12/08 01:46:48;;;;;;;39.17;15.77;;;;;;;0.06;80.22;94884.00;5111001;28;20122;-73
2020/12/08 01:49:15;;;;;;;44.70;16.23;;;;;;;0.07;80.36;94893.63;5110327;27;20040;-73
2020/12/08 01:51:42;;;;;;;60.22;16.42;;;;;;;0.10;80.21;94892.22;5110920;28;20039;-73
2020/12/08 01:54:09;;;;;;;37.08;15.60;;;;;;;0.00;80.39;94890.50;5109997;28;20050;-73
2020/12/08 01:56:36;;;;;;;39.85;16.33;;;;;;;-0.13;80.73;94905.38;5110174;28;20506;-73
2020/12/08 01:59:02;;;;;;;40.65;15.75;;;;;;;-0.15;80.88;94904.06;5110196;28;20101;-73
2020/12/08 02:01:28;;;;;;;55.03;15.90;;;;;;;-0.13;81.00;94896.53;5110746;28;20513;-74
2020/12/08 02:03:54;;;;;;;40.42;16.60;;;;;;;-0.08;81.08;94894.59;5110830;27;20054;-73
2020/12/08 02:06:21;;;;;;;40.00;16.70;;;;;;;-0.03;81.02;94889.19;5110366;28;20047;-73
2020/12/08 02:08:48;;;;;;;43.45;14.90;;;;;;;0.03;80.86;94884.56;5110660;27;20067;-73
2020/12/08 02:11:14;;;;;;;34.97;15.20;;;;;;;0.05;80.58;94893.09;5110307;28;20058;-73
2020/12/08 02:13:40;;;;;;;43.58;15.25;;;;;;;0.06;80.49;94892.03;5110284;28;20596;-73
2020/12/08 02:16:06;;;;;;;38.95;15.05;;;;;;;0.06;80.59;94886.69;5110202;28;20128;-73
2020/12/08 02:18:32;;;;;;;33.85;14.40;;;;;;;0.08;80.61;94892.53;5110709;28;20051;-73
2020/12/08 02:21:01;;;;;;;69.45;15.95;;;;;;;-0.04;80.16;94886.81;5110560;28;20062;-73
2020/12/08 02:23:28;;;;;;;41.38;16.23;;;;;;;-0.07;80.37;94895.41;5109681;28;20043;-73
2020/12/08 02:25:58;;;;;;;35.90;16.42;;;;;;;-0.01;80.58;94889.69;5110406;28;20043;-74
2020/12/08 02:28:24;;;;;;;40.35;16.65;;;;;;;0.09;80.48;94899.47;5109910;28;20059;-73
2020/12/08 02:30:51;;;;;;;36.70;15.23;;;;;;;0.14;80.38;94902.09;5110306;28;20074;-74
2020/12/08 02:33:17;;;;;;;34.92;16.27;;;;;;;0.20;80.29;94900.94;5109653;28;20051;-73
2020/12/08 02:35:43;;;;;;;33.17;14.45;;;;;;;0.25;80.28;94903.53;5110366;28;20059;-73
2020/12/08 02:38:10;;;;;;;33.38;14.88;;;;;;;0.30;80.18;94900.00;5109636;28;20048;-74
2020/12/08 02:40:36;;;;;;;33.20;14.35;;;;;;;0.32;80.43;94905.88;5110193;28;20066;-74
2020/12/08 02:43:02;;;;;;;29.25;14.13;;;;;;;0.31;80.12;94906.16;5109736;28;20123;-73
2020/12/08 02:45:28;;;;;;;32.25;13.93;;;;;;;0.31;79.91;94911.50;5110167;28;20051;-73
2020/12/08 02:47:54;;;;;;;29.27;13.90;;;;;;;0.32;79.89;94902.41;5110212;28;20131;-73
2020/12/08 02:50:20;;;;;;;30.88;13.27;;;;;;;0.32;79.63;94903.22;5109744;28;20039;-73
2020/12/08 02:52:46;;;;;;;37.08;14.45;;;;;;;0.34;79.36;94910.94;5106694;28;20035;-73
2020/12/08 02:55:13;;;;;;;31.40;13.98;;;;;;;0.32;79.20;94897.06;5109564;28;20039;-73
2020/12/08 02:57:39;;;;;;;49.42;18.95;;;;;;;0.36;78.95;94903.41;5105202;28;20047;-73
2020/12/08 03:00:05;;;;;;;30.00;13.43;;;;;;;0.32;78.58;94903.22;5108907;28;20043;-73
2020/12/08 03:02:31;;;;;;;33.20;13.82;;;;;;;0.29;78.29;94893.06;5110143;28;20043;-73
2020/12/08 03:04:57;;;;;;;38.75;14.35;;;;;;;0.28;78.33;94894.16;5109877;28;20048;-73
2020/12/08 03:07:23;;;;;;;34.53;13.77;;;;;;;0.28;78.44;94886.13;5110727;27;20043;-74
2020/12/08 03:09:49;;;;;;;35.58;15.02;;;;;;;0.28;78.16;94883.44;5114173;28;20613;-73
2020/12/08 03:12:16;;;;;;;34.90;15.02;;;;;;;0.27;78.02;94894.44;5113529;28;20050;-73
2020/12/08 03:24:40;;;;;;;;;;;;;;;0.07;77.78;94898.19;5114217;28;20113;-73
2020/12/08 03:27:06;;;;;;;34.70;13.65;;;;;;;0.01;78.01;94886.75;5113313;28;19919;-73
2020/12/08 03:29:33;;;;;;;44.63;13.15;;;;;;;-0.01;78.07;94891.56;5113376;27;20100;-73
2020/12/08 03:31:59;;;;;;;35.58;13.10;;;;;;;-0.09;77.37;94886.88;5113664;28;20418;-73
2020/12/08 03:34:25;;;;;;;37.40;14.45;;;;;;;-0.15;77.65;94874.63;5113168;28;20039;-73
2020/12/08 03:36:51;;;;;;;38.90;13.77;;;;;;;-0.18;77.85;94869.84;5113587;27;20036;-73
2020/12/08 03:39:17;;;;;;;37.70;14.27;;;;;;;-0.18;77.95;94867.16;5113140;27;20142;-73
2020/12/08 03:41:44;;;;;;;37.17;14.68;;;;;;;-0.22;78.27;94860.78;5113417;28;20483;-73
2020/12/08 03:44:10;;;;;;;37.75;14.95;;;;;;;-0.22;78.43;94876.84;5112929;28;20571;-74
2020/12/08 03:46:37;;;;;;;34.22;14.30;;;;;;;-0.24;78.74;94868.31;5113372;28;20040;-73
2020/12/08 03:49:04;;;;;;;27.60;12.27;;;;;;;-0.25;78.73;94874.75;5112979;28;20043;-73
2020/12/08 03:51:30;;;;;;;34.47;14.68;;;;;;;-0.23;78.91;94872.59;5113427;28;20055;-73
2020/12/08 03:53:56;;;;;;;31.50;12.85;;;;;;;-0.22;78.80;94855.44;5113284;28;20040;-74
2020/12/08 03:56:22;;;;;;;32.78;13.95;;;;;;;-0.23;78.86;94862.69;5112817;27;20418;-73
2020/12/08 03:58:48;;;;;;;36.83;13.90;;;;;;;-0.21;78.80;94863.19;5112665;28;20056;-73
2020/12/08 04:01:16;;;;;;;37.35;14.57;;;;;;;-0.31;78.99;94853.41;5112610;27;20051;-73
2020/12/08 04:03:44;;;;;;;35.13;14.85;;;;;;;-0.28;79.43;94850.16;5112957;27;20050;-73
2020/12/08 04:06:11;;;;;;;36.67;15.70;;;;;;;-0.24;79.56;94849.59;5112602;28;20043;-73
2020/12/08 04:08:38;;;;;;;34.53;15.02;;;;;;;-0.21;79.47;94857.03;5112717;27;20039;-73
2020/12/08 04:11:03;;;;;;;36.25;14.48;;;;;;;-0.19;79.64;94866.38;5112536;28;20047;-73
2020/12/08 04:13:29;;;;;;;28.88;13.98;;;;;;;-0.20;79.32;94859.44;5112796;28;20137;-73
2020/12/08 04:15:55;;;;;;;34.90;14.38;;;;;;;-0.20;79.36;94864.78;5112871;28;20044;-73
2020/12/08 04:18:21;;;;;;;41.63;14.90;;;;;;;-0.20;79.33;94864.00;5111721;28;20047;-73
2020/12/08 04:20:49;;;;;;;35.25;15.43;;;;;;;-0.20;79.46;94866.69;5112447;28;20166;-73
2020/12/08 04:23:16;;;;;;;34.78;14.63;;;;;;;-0.21;79.42;94865.06;5112287;27;20039;-73
2020/12/08 04:25:42;;;;;;;45.97;15.25;;;;;;;-0.25;79.25;94862.19;5112733;28;20043;-74
2020/12/08 04:28:08;;;;;;;39.80;15.45;;;;;;;-0.22;78.91;94858.13;5111669;27;20051;-73
2020/12/08 04:30:35;;;;;;;37.60;14.18;;;;;;;-0.22;78.84;94855.44;5112559;28;20050;-73
2020/12/08 04:33:01;;;;;;;39.92;14.13;;;;;;;-0.23;78.59;94864.56;5111926;27;20055;-73
2020/12/08 04:35:27;;;;;;;32.20;14.77;;;;;;;-0.22;78.56;94866.16;5112551;28;20505;-73
2020/12/08 04:37:54;;;;;;;31.27;14.10;;;;;;;-0.22;78.62;94861.59;5112417;28;20478;-73
2020/12/08 04:40:21;;;;;;;32.38;13.90;;;;;;;-0.22;78.24;94872.28;5111858;27;20067;-73
2020/12/08 04:42:48;;;;;;;34.42;13.27;;;;;;;-0.32;78.44;94881.22;5112524;27;20039;-73
2020/12/08 04:45:15;;;;;;;42.53;13.40;;;;;;;-0.39;78.47;94882.66;5111902;28;20043;-73
2020/12/08 04:47:43;;;;;;;26.23;11.25;;;;;;;-0.48;78.23;94887.03;5112307;28;20040;-73
2020/12/08 04:50:09;;;;;;;43.40;12.18;;;;;;;-0.53;78.34;94877.19;5111813;27;20048;-73
2020/12/08 04:52:36;;;;;;;27.35;11.57;;;;;;;-0.60;78.23;94882.88;5112302;27;20043;-73
2020/12/08 04:55:03;;;;;;;37.75;12.30;;;;;;;-0.67;78.08;94881.63;5111743;28;20043;-73
2020/12/08 04:57:29;;;;;;;33.88;11.57;;;;;;;-0.75;78.31;94882.22;5112039;28;20040;-73
2020/12/08 05:00:06;;;;;;;25.75;10.95;;;;;;;-0.80;78.06;94894.56;5111684;28;20047;-73
2020/12/08 05:02:32;;;;;;;52.72;13.00;;;;;;;-0.84;78.07;94901.53;5111777;28;20043;-73
2020/12/08 05:04:58;;;;;;;33.90;11.35;;;;;;;-0.80;78.03;94904.47;5111915;28;20070;-73
2020/12/08 05:07:28;;;;;;;37.65;12.45;;;;;;;-0.82;78.55;94896.72;5111380;27;20526;-73
2020/12/08 05:09:54;;;;;;;31.02;12.38;;;;;;;-0.83;78.39;94900.47;5111860;27;20043;-73
2020/12/08 05:12:22;;;;;;;29.23;11.75;;;;;;;-0.84;78.27;94893.53;5111267;28;20062;-73
2020/12/08 05:14:48;;;;;;;34.95;12.05;;;;;;;-0.83;78.19;94897.81;5111933;28;20039;-73
2020/12/08 05:17:21;;;;;;;42.13;13.43;;;;;;;-0.80;77.86;94899.91;5111183;28;20050;-73
2020/12/08 05:19:47;;;;;;;42.08;11.57;;;;;;;-0.83;78.03;94895.13;5111720;28;20039;-73
2020/12/08 05:22:13;;;;;;;41.88;11.68;;;;;;;-0.91;77.89;94906.44;5111113;27;20044;-73
2020/12/08 05:24:39;;;;;;;28.42;12.10;;;;;;;-0.92;78.18;94904.03;5111265;27;20054;-73
2020/12/08 05:27:07;;;;;;;32.33;13.15;;;;;;;-0.88;78.38;94902.41;5110834;27;20048;-72
2020/12/08 05:29:35;;;;;;;28.98;12.65;;;;;;;-0.86;78.76;94905.59;5111042;28;20035;-73
2020/12/08 05:32:23;;;;;;;28.23;12.45;;;;;;;-0.89;79.02;94906.13;5111048;27;20490;-73
2020/12/08 05:34:52;;;;;;;33.00;13.05;;;;;;;-0.87;79.33;94904.78;5111019;28;20035;-73
2020/12/08 05:37:19;;;;;;;48.08;19.58;;;;;;;-0.84;79.21;94901.53;5110570;27;20050;-73
2020/12/08 05:39:46;;;;;;;38.92;15.13;;;;;;;-0.85;79.02;94897.28;5111251;27;20068;-73
2020/12/08 05:42:17;;;;;;;30.17;13.38;;;;;;;-0.83;79.03;94889.78;5110765;28;20043;-73
2020/12/08 05:44:46;;;;;;;33.75;13.65;;;;;;;-0.81;78.87;94892.19;5111142;27;20039;-73
2020/12/08 05:47:17;;;;;;;32.63;12.73;;;;;;;-0.77;78.65;94892.41;5110552;28;20410;-73
2020/12/08 05:49:43;;;;;;;38.25;14.98;;;;;;;-0.80;78.63;94891.09;5111022;27;20039;-73
2020/12/08 05:52:10;;;;;;;36.15;14.52;;;;;;;-0.80;78.66;94899.91;5110569;28;20044;-73
2020/12/08 05:54:36;;;;;;;46.25;15.70;;;;;;;-0.81;78.75;94900.19;5111009;28;20437;-73
2020/12/08 05:57:13;;;;;;;42.30;14.55;;;;;;;-0.85;79.46;94907.97;5110380;28;20050;-73
2020/12/08 05:59:39;;;;;;;27.52;12.63;;;;;;;-0.90;79.64;94916.03;5106311;28;20043;-73
2020/12/08 06:02:06;;;;;;;36.60;13.93;;;;;;;-0.92;79.70;94923.53;5110354;28;20048;-73
2020/12/08 06:04:39;;;;;;;30.92;12.73;;;;;;;-0.92;79.80;94923.53;5110726;28;20039;-73
2020/12/08 06:07:05;;;;;;;28.00;12.93;;;;;;;-0.92;79.83;94920.06;5110476;28;20047;-73
2020/12/08 06:09:33;;;;;;;35.65;14.85;;;;;;;-0.87;79.87;94930.72;5110352;28;20085;-73
2020/12/08 06:12:01;;;;;;;51.85;18.98;;;;;;;-0.84;79.95;94930.94;5110772;28;20042;-73
2020/12/08 06:14:32;;;;;;;44.30;14.82;;;;;;;-0.80;79.69;94931.19;5110242;28;20047;-72
2020/12/08 06:17:03;;;;;;;32.67;13.07;;;;;;;-0.75;79.55;94919.66;5110706;28;20047;-73
2020/12/08 06:19:30;;;;;;;43.10;14.57;;;;;;;-0.71;79.68;94923.38;5102203;28;20032;-73
2020/12/08 06:21:56;;;;;;;44.88;14.77;;;;;;;-0.71;79.12;94918.03;5110475;28;20043;-73
2020/12/08 06:24:22;;;;;;;33.05;14.25;;;;;;;-0.70;79.03;94922.28;5109767;28;20036;-73
2020/12/08 06:26:48;;;;;;;33.75;14.55;;;;;;;-0.70;78.88;94916.94;5110431;28;20130;-73
2020/12/08 06:29:14;;;;;;;28.98;13.23;;;;;;;-0.69;78.88;94916.66;5096376;28;20050;-72
2020/12/08 06:31:42;;;;;;;31.27;12.57;;;;;;;-0.71;79.15;94923.38;5089903;28;20808;-73
2020/12/08 06:34:08;;;;;;;27.02;12.20;;;;;;;-0.71;79.04;94915.34;5089155;28;20055;-73
2020/12/08 06:36:35;;;;;;;30.50;12.88;;;;;;;-0.68;78.86;94912.91;5089936;28;20044;-73
2020/12/08 06:39:04;;;;;;;31.48;13.77;;;;;;;-0.61;78.33;94917.91;5089609;28;20137;-73
2020/12/08 06:41:30;;;;;;;34.50;13.10;;;;;;;-0.59;78.35;94921.09;5089554;28;20047;-73
2020/12/08 06:43:57;;;;;;;28.50;12.95;;;;;;;-0.56;78.43;94925.91;5090027;28;20472;-73
2020/12/08 06:46:24;;;;;;;27.40;12.85;;;;;;;-0.55;78.26;94922.94;5089359;28;20499;-73
2020/12/08 06:48:59;;;;;;;31.25;13.52;;;;;;;-0.53;78.34;94925.31;5089872;28;20075;-73
2020/12/08 06:51:25;;;;;;;25.52;12.90;;;;;;;-0.55;78.21;94930.16;5089549;28;20402;-73
2020/12/08 06:53:52;;;;;;;31.73;15.10;;;;;;;-0.55;78.45;94930.16;5089288;28;20150;-73
2020/12/08 06:56:27;;;;;;;29.00;13.43;;;;;;;-0.49;78.63;94931.69;5089378;28;20059;-73
2020/12/08 06:58:53;;;;;;;29.23;13.50;;;;;;;-0.47;78.38;94932.22;5089383;28;20040;-73
2020/12/08 07:01:19;;;;;;;28.98;13.57;;;;;;;-0.43;78.42;94924.41;5089285;28;20048;-73
2020/12/08 07:03:45;;;;;;;32.25;14.55;;;;;;;-0.49;78.27;94918.31;5089494;28;20048;-73
2020/12/08 07:06:11;;;;;;;35.15;16.45;;;;;;;-0.45;78.25;94919.38;5089390;28;20048;-73
2020/12/08 07:08:38;;;;;;;30.65;14.27;;;;;;;-0.42;78.24;94916.09;5089711;28;20254;-73
2020/12/08 07:11:05;;;;;;;38.90;18.17;;;;;;;-0.42;78.20;94926.81;5089293;28;20040;-73
2020/12/08 07:13:31;;;;;;;33.85;16.52;;;;;;;-0.40;78.15;94916.63;5089749;28;20067;-72
2020/12/08 07:15:57;;;;;;;38.92;18.17;;;;;;;-0.36;78.39;94912.31;5089724;28;20483;-72
2020/12/08 07:18:23;;;;;;;40.10;18.42;;;;;;;-0.41;78.67;94906.22;5088841;28;20503;-72
2020/12/08 07:20:49;;;;;;;32.92;15.50;;;;;;;-0.41;78.72;94916.94;5089590;28;20135;-72
2020/12/08 07:23:15;;;;;;;38.20;16.05;;;;;;;-0.40;78.43;94913.97;5089179;28;20040;-72
2020/12/08 07:25:41;;;;;;;34.30;14.68;;;;;;;-0.41;78.28;94909.69;5089515;28;20131;-75
2020/12/08 07:28:08;;;;;;;27.60;13.20;;;;;;;-0.39;78.19;94907.53;5089640;28;20104;-74
2020/12/08 07:30:34;;;;;;;28.80;13.45;;;;;;;-0.37;78.17;94909.91;5089517;28;20040;-74
2020/12/08 07:33:11;;;;;;;28.73;12.93;;;;;;;-0.32;78.32;94921.34;5089232;28;20048;-73
2020/12/08 07:35:38;;;;;;;28.55;12.90;;;;;;;-0.31;77.78;94914.16;5109782;28;20457;-73
2020/12/08 07:38:04;;;;;;;28.85;12.48;;;;;;;-0.31;77.80;94912.25;5109291;28;20044;-74
2020/12/08 07:40:32;;;;;;;30.35;13.45;;;;;;;-0.33;77.84;94897.56;5109452;28;20130;-74
2020/12/08 07:42:58;;;;;;;34.85;15.18;;;;;;;-0.31;78.12;94898.88;5109492;28;20093;-74
2020/12/08 07:45:25;;;;;;;27.70;13.60;;;;;;;-0.28;78.09;94903.66;5109146;28;20444;-74
2020/12/08 07:47:53;;;;;;;26.65;12.45;;;;;;;-0.22;77.80;94907.06;5109596;28;20502;-74
2020/12/08 07:50:24;;;;;;;27.40;13.15;;;;;;;-0.19;77.81;94911.06;5108946;28;20047;-74
2020/12/08 07:52:58;;;;;;;30.77;14.63;;;;;;;-0.16;77.62;94902.44;5109756;28;20035;-74
2020/12/08 07:55:24;;;;;;;27.90;13.35;;;;;;;-0.15;77.76;94907.53;5111828;27;20046;-74
2020/12/08 07:57:50;;;;;;;29.00;13.43;;;;;;;-0.13;77.88;94901.91;5113291;28;20043;-74
2020/12/08 08:00:16;;;;;;;34.72;15.43;;;;;;;-0.10;77.62;94890.63;5112750;27;20406;-74
2020/12/08 08:02:43;;;;;;;32.42;14.05;;;;;;;-0.08;77.96;94909.84;5113009;27;20043;-74
2020/12/08 08:05:09;;;;;;;33.58;15.40;;;;;;;-0.04;78.15;94916.25;5112286;28;20050;-74
2020/12/08 08:07:35;;;;;;;28.85;13.88;;;;;;;-0.02;77.73;94904.16;5112847;28;20039;-74
2020/12/08 08:10:01;;;;;;;26.77;13.23;;;;;;;-0.01;77.59;94904.94;5112608;28;20139;-73
2020/12/08 08:12:27;;;;;;;30.10;13.82;;;;;;;0.02;77.54;94903.59;5113023;28;20047;-74
2020/12/08 08:14:53;;;;;;;30.20;13.00;;;;;;;0.02;77.53;94911.63;5112920;28;20073;-74
2020/12/08 08:17:19;;;;;;;30.42;14.20;;;;;;;0.09;77.46;94906.72;5112428;27;20126;-76
2020/12/08 08:19:45;;;;;;;29.50;13.80;;;;;;;0.15;77.77;94902.88;5112725;28;20122;-74
2020/12/08 08:22:11;;;;;;;28.17;13.90;;;;;;;0.17;77.60;94909.56;5112469;28;20063;-74
2020/12/08 08:24:37;;;;;;;26.63;12.95;;;;;;;0.19;77.54;94915.41;5112875;28;20411;-74
2020/12/08 08:27:03;;;;;;;26.27;12.57;;;;;;;0.23;77.27;94924.47;5094103;28;20052;-74
2020/12/08 08:29:32;;;;;;;29.27;13.57;;;;;;;0.27;77.12;94927.38;5112805;28;20044;-74
2020/12/08 08:31:58;;;;;;;26.75;13.23;;;;;;;0.29;77.03;94921.72;5112765;28;20055;-75
2020/12/08 08:34:24;;;;;;;24.23;12.45;;;;;;;0.31;77.11;94922.22;5112102;28;20035;-74
2020/12/08 08:36:52;;;;;;;27.50;13.40;;;;;;;0.34;77.18;94935.03;5112777;28;20077;-74
2020/12/08 08:39:18;;;;;;;30.58;14.82;;;;;;;0.38;77.31;94928.81;5111609;27;20047;-75
2020/12/08 08:41:45;;;;;;;29.10;13.25;;;;;;;0.47;77.12;94928.94;5112293;28;20035;-75
2020/12/08 08:44:11;;;;;;;35.03;14.75;;;;;;;0.52;77.06;94919.00;5111812;28;20070;-74
2020/12/08 08:46:39;;;;;;;33.38;14.55;;;;;;;0.54;77.02;94926.72;5111207;28;20138;-73
2020/12/08 08:49:05;;;;;;;28.30;14.00;;;;;;;0.58;77.06;94927.75;5111505;27;20036;-73
2020/12/08 08:51:31;;;;;;;27.85;14.48;;;;;;;0.61;76.97;94926.38;5112307;27;20563;-74
2020/12/08 08:53:57;;;;;;;33.88;14.95;;;;;;;0.66;77.22;94929.75;5112222;28;20040;-74
2020/12/08 08:56:23;;;;;;;26.65;14.05;;;;;;;0.69;76.97;94929.19;5111821;28;20044;-74
2020/12/08 08:58:49;;;;;;;29.85;13.45;;;;;;;0.73;76.84;94919.50;5111540;27;20124;-74
2020/12/08 09:01:15;;;;;;;28.60;13.55;;;;;;;0.77;77.29;94925.06;5111453;28;20044;-74
2020/12/08 09:03:41;;;;;;;28.77;14.35;;;;;;;0.78;76.87;94916.75;5111848;28;20048;-73
2020/12/08 09:06:07;;;;;;;31.15;15.35;;;;;;;0.83;77.15;94923.09;5110967;28;20043;-73
2020/12/08 09:08:33;;;;;;;30.63;13.98;;;;;;;0.84;77.11;94936.22;5111949;28;20051;-73
2020/12/08 09:11:01;;;;;;;30.73;14.45;;;;;;;0.87;77.24;94929.47;5111686;28;20044;-74
2020/12/08 09:13:27;;;;;;;26.77;13.68;;;;;;;0.90;77.40;94923.53;5111561;28;20035;-73
2020/12/08 09:15:53;;;;;;;25.40;12.98;;;;;;;0.87;77.35;94924.09;5111714;28;20132;-73
2020/12/08 09:18:19;;;;;;;29.08;13.38;;;;;;;0.88;77.42;94914.97;5110987;27;20589;-73
2020/12/08 09:20:45;;;;;;;25.33;13.38;;;;;;;0.89;76.98;94927.28;5111445;27;20115;-74
2020/12/08 09:23:11;;;;;;;28.27;12.77;;;;;;;0.94;76.80;94903.09;5111319;28;20040;-73
2020/12/08 09:25:37;;;;;;;29.48;14.10;;;;;;;0.99;77.63;94900.31;5111482;28;20043;-74
2020/12/08 09:28:03;;;;;;;30.20;14.63;;;;;;;1.05;77.85;94899.19;5110789;27;20113;-74
2020/12/08 09:30:29;;;;;;;27.08;13.20;;;;;;;1.13;77.85;94895.03;5111732;28;20044;-74
2020/12/08 09:32:55;;;;;;;28.73;14.68;;;;;;;1.16;77.70;94908.63;5111141;27;20081;-75
2020/12/08 09:35:22;;;;;;;31.98;14.35;;;;;;;1.18;77.66;94909.13;5111061;27;20678;-74
2020/12/08 09:37:48;;;;;;;27.27;13.85;;;;;;;1.21;77.67;94908.56;5111113;27;20046;-74
2020/12/08 09:40:14;;;;;;;27.90;13.18;;;;;;;1.25;77.44;94924.84;5110732;28;20051;-74
2020/12/08 09:42:41;;;;;;;25.80;12.88;;;;;;;1.27;77.35;94931.50;5111328;28;20044;-74
2020/12/08 09:45:09;;;;;;;28.60;13.38;;;;;;;1.33;77.38;94934.09;5110598;28;20046;-74
2020/12/08 09:47:35;;;;;;;26.40;13.13;;;;;;;1.36;76.98;94937.00;5111055;28;20036;-74
2020/12/08 09:50:01;;;;;;;26.40;12.95;;;;;;;1.38;76.74;94932.13;5110487;28;20062;-74
2020/12/08 09:52:29;;;;;;;26.65;13.60;;;;;;;1.42;76.38;94932.34;5111009;28;20039;-74
2020/12/08 09:54:56;;;;;;;26.75;13.27;;;;;;;1.46;76.42;94931.47;5111049;27;20047;-74
2020/12/08 09:57:24;;;;;;;25.90;12.68;;;;;;;1.51;76.35;94922.50;5110522;27;20043;-74
2020/12/08 09:59:50;;;;;;;27.80;13.18;;;;;;;1.53;76.52;94925.72;5110415;27;20610;-74
2020/12/08 10:02:18;;;;;;;27.20;12.95;;;;;;;1.55;76.27;94924.31;5110092;28;20052;-74
2020/12/08 10:04:44;;;;;;;29.70;14.02;;;;;;;1.53;75.63;94914.97;5110614;27;20043;-74
2020/12/08 10:07:14;;;;;;;28.88;12.20;;;;;;;1.52;75.62;94911.50;5110306;27;20050;-74
2020/12/08 10:09:40;;;;;;;24.92;12.45;;;;;;;1.55;75.67;94907.44;5110397;28;20039;-74
2020/12/08 10:12:06;;;;;;;29.45;13.10;;;;;;;1.56;75.66;94901.75;5109836;28;20505;-74
2020/12/08 10:14:33;;;;;;;25.88;12.63;;;;;;;1.60;75.53;94899.28;5110567;27;20040;-74
2020/12/08 10:16:59;;;;;;;23.60;11.63;;;;;;;1.67;75.63;94893.53;5109848;28;20116;-74
2020/12/08 10:19:26;;;;;;;24.38;12.98;;;;;;;1.67;75.38;94893.53;5110079;28;20043;-75
2020/12/08 10:21:54;;;;;;;26.83;12.98;;;;;;;1.70;75.80;94882.19;5110506;28;20123;-74
2020/12/08 10:24:21;;;;;;;28.45;13.57;;;;;;;1.72;75.85;94891.56;5110171;28;20040;-74
2020/12/08 10:26:47;;;;;;;31.13;13.35;;;;;;;1.74;76.02;94881.31;5110194;28;20047;-74
2020/12/08 10:29:13;;;;;;;23.48;12.77;;;;;;;1.77;75.86;94874.53;5110051;28;20044;-74
2020/12/08 10:31:39;;;;;;;26.38;12.98;;;;;;;1.84;75.90;94883.00;5110385;28;20047;-73
2020/12/08 10:34:05;;;;;;;26.58;12.70;;;;;;;1.88;76.31;94880.50;5109775;28;20055;-75
2020/12/08 10:36:32;;;;;;;23.13;11.60;;;;;;;1.91;75.94;94879.91;5110490;28;20131;-74
2020/12/08 10:38:58;;;;;;;24.15;11.70;;;;;;;1.95;75.82;94875.56;5110136;28;20059;-74
2020/12/08 10:41:26;;;;;;;23.73;11.63;;;;;;;1.98;75.66;94889.16;5109785;28;20043;-74
2020/12/08 10:43:52;;;;;;;21.25;11.00;;;;;;;2.05;75.65;94888.78;5110341;28;20039;-74
2020/12/08 10:46:18;;;;;;;20.85;10.88;;;;;;;2.10;75.66;94877.94;5109749;28;20047;-74
2020/12/08 10:48:44;;;;;;;24.13;11.55;;;;;;;2.15;75.74;94872.44;5110181;28;20501;-74
2020/12/08 10:51:10;;;;;;;23.40;12.13;;;;;;;2.23;75.84;94869.03;5109828;28;20044;-74
2020/12/08 10:53:37;;;;;;;25.67;11.60;;;;;;;2.31;75.84;94864.88;5109983;28;20044;-74
2020/12/08 10:56:03;;;;;;;20.60;10.88;;;;;;;2.33;75.70;94868.03;5109515;28;20048;-75
2020/12/08 10:58:29;;;;;;;21.10;10.40;;;;;;;2.35;75.09;94865.84;5110027;28;20039;-74
2020/12/08 11:00:55;;;;;;;22.23;10.35;;;;;;;2.33;74.39;94858.06;5110022;28;20426;-74
2020/12/08 11:03:21;;;;;;;21.58;10.35;;;;;;;2.37;74.28;94852.13;5109741;28;20047;-74
2020/12/08 11:05:47;;;;;;;18.17;9.60;;;;;;;2.41;73.87;94842.34;5109860;28;20046;-74
2020/12/08 11:08:14;;;;;;;18.83;8.93;;;;;;;2.43;72.87;94846.31;5109742;28;20444;-73
2020/12/08 11:10:41;;;;;;;18.98;9.82;;;;;;;2.44;72.76;94852.47;5109868;28;20074;-74
2020/12/08 11:13:07;;;;;;;17.27;8.93;;;;;;;2.53;72.88;94839.94;5109389;28;20482;-74
2020/12/08 11:15:33;;;;;;;19.27;8.98;;;;;;;2.59;72.41;94836.00;5109802;28;20050;-74
2020/12/08 11:17:59;;;;;;;16.70;8.15;;;;;;;2.65;72.36;94839.38;5109884;28;20051;-74
2020/12/08 11:20:25;;;;;;;16.08;8.07;;;;;;;2.69;71.98;94837.69;5109504;28;20044;-74
2020/12/08 11:22:51;;;;;;;20.13;10.00;;;;;;;2.74;71.74;94841.03;5109565;28;20055;-73
2020/12/08 11:25:17;;;;;;;17.50;8.70;;;;;;;2.76;71.90;94838.81;5109269;28;20554;-74
2020/12/08 11:27:44;;;;;;;18.95;9.50;;;;;;;2.82;71.95;94826.88;5109697;28;20131;-72
2020/12/08 11:30:10;;;;;;;17.30;9.43;;;;;;;2.86;71.76;94827.03;5113199;28;20058;-71